Accueil
METAR-TAF:

METAR-TAF

Aéroports :

Tuscaloosa, Alabama, États-Unis

latitude: 33-12-43N, longitude: 087-36-57W, altitude: 52 m

Observation

Le bulletin a été fait il y a 38 minutes, à 18:53 UTC
Vent 6 kt de direction variable
Température 28°C
Humidité 51%
Pression 1016 hPa
Visibilité: 16.1 km
Nuages épars à une hauteur de 4200 ft

METAR: KTCL 221853Z VRB06KT 10SM SCT042 28/17 A2999 RMK AO2 SLP154 T02780172

Heure: 14:31 (19:31 UTC)

Prévision

Le bulletin a été fait il y a 2 heures et 11 minutes, à 17:20 UTC
Prévision valable du 22 à 18 UTC au 23 à 18 UTC
Vent 6 kt de nord/nord-ouest
Visibilité: 10 km
Nuages épars à une hauteur de 5000 ft
A partir de 23 à 0000 UTC
Vent 3 kt de direction variable
Visibilité: 10 km
Ciel clair

TAF: KTCL 221720Z 2218/2318 34006KT P6SM SCT050 FM230000 VRB03KT P6SM SKC

Observations et prévisions météorologiques de plus de 4000 aéroports (messages METAR et TAF).

Les stations disponibles sont représentées par des disques jaunes et rouges sur la carte.

Passer la souris dessus pour voir le nom de la station.

Cliquer dessus pour voir les observations et prévisions météorologiques.

Pour changer de carte: cliquez sur les boutons verts avec une croix noire pour zoomer, sur le bouton vert avec un tiret pour effectuer un zoom arrière, ou sur les flèches vertes pour les cartes adjacentes.


METAR-TAF: